Terminal Aerodrome Forecast
Issued by NWS

Home | Current Version | Previous Version | Text Only | Print | Product List | Glossary On
Versions: 1 2 3 4 5 6 7 8 9 10 11 12 13 14 15 16 17 18 19 20 21 22 23 24 25 26 27 28
000
FTUS44 KFWD 261729
TAFGKY
TAF
KGKY 261729Z 2618/2718 34018G28KT P6SM BKN012
     FM262000 33015G25KT P6SM SCT025 BKN040
     FM270200 30010KT P6SM SKC
     FM270600 19004KT P6SM SCT150
     FM271600 17013KT P6SM BKN250=

USA.gov is the U.S. government's official web portal to all federal, state and local government web resources and services.